George Bush Intercontinental Houston Airport
KIAH : now visible

Airfield :











YOU CAN JOIN US ON...

 
LOGIN :

Register | Disclaimer

   EN    FR    IT 

 









Legend :    VFR   Marginal VFR   IFR   Intensive IFR   Very Intensive IFR
Visi :
Ceiling :
>= 8 km
>= 3000ft
5 to 8 km
1000 to 3000 ft
1500m to 5 km
500 to 1000 ft
800 to 1500m
200 to 500 ft
< 800m
< 200 ft
Symbols :   Thunderstorms  Fog  Heavy snow  Heavy precipitations  Wind > 20 kt






- Airport Elevation : 97 ft
- IATA code : IAH


KIAH - George Bush Intercontinental Houston

CURRENT METAR :
  • 182253Z 12005KT 10SM FEW033 FEW200 SCT250 31/23 A2996 RMK AO2 SLP143 T03060228

EXPIRED METARs :
  • 182153Z 00000KT 10SM FEW028 SCT040 SCT200 BKN250 29/22 A2998 RMK AO2 SLP151 T02940222
  • 182053Z 12003KT 10SM SCT028 SCT200 BKN250 29/22 A2999 RMK AO2 SLP155 T02890222 58015
  • 181953Z 00000KT 10SM FEW030 SCT200 BKN250 28/23 A3001 RMK AO2 SLP160 T02780228
  • 181853Z 00000KT 10SM FEW110 SCT160 BKN250 27/22 A3003 RMK AO2 SLP167 T02670217

TAF KIAH
Valid from the 18 at 21:00 until the 20 at 00:00 UTC


182104Z 1821/1924 12003KT P6SM SCT028 BKN250
FM190200 VRB03KT P6SM BKN035
FM190900 VRB03KT 6SM BR SCT020 SCT250
FM191400 31006KT P6SM VCSH SCT015 SCT250
FM191800 32007KT P6SM VCSH SCT035
KZHU FIR / North America



MET'MAP, your aeronautical weather chart ! - Copyright ORBIFLY December 2007 - Disclaimer

ORBIFLY MET'MAP TEAM :

Programming & Development : Alexandra Zaïnal
Original concept : Baudouin d'Aumeries
Technical & hardware support : Manuel Goepfert
Assistance : Marc-Olivier Méhu




SOURCES & CREDITS :

   NOAA       Earth
Advisory